Overview Statistics Trail Chart Weather Telemetry Raw packets
 

This is the latest recevied weather packets stored in our database for station/object VK4CWL-13. If no packets are shown the sender has not sent any weather packets the latest 10 day(s).

<< 76 77 78 79 80 81 82 >>
Time Temp. Humidity Pressure Rain* Wind** Luminosity Snow
1788126460 15.56° C 79% 1028.6 hPa 0 mm - - -
1788126157 15° C 81% 1028.6 hPa 0 mm - - -
1788125855 14.44° C 83% 1028.6 hPa 0 mm - - -
1788125553 13.33° C 84% 1028.5 hPa 0 mm - - -
1788125251 12.78° C 85% 1028.4 hPa 0 mm - - -
1788124948 12.22° C 84% 1028.4 hPa 0 mm - - -
1788124646 11.67° C 83% 1028.2 hPa 0 mm - - -
1788124343 11.11° C 82% 1028 hPa 0 mm - - -
1788124048 11.11° C 85% 1028.1 hPa 0 mm - - -
1788123739 10.56° C 84% 1028.2 hPa 0 mm - - -
1788123437 10.56° C 84% 1028.1 hPa 0 mm - - -
1788123135 10.56° C 83% 1028 hPa 0 mm - - -
1788122832 10.56° C 84% 1027.9 hPa 0 mm - - -
1788122530 10° C 85% 1027.9 hPa 0 mm - - -
1788122228 10° C 86% 1027.9 hPa 0 mm - - -
1788121925 10° C 89% 1028.1 hPa 0 mm - - -
1788121623 9.44° C 92% 1028.1 hPa 0 mm - - -
1788121320 9.44° C 87% 1027.8 hPa 0 mm - - -
1788121018 9.44° C 85% 1027.8 hPa 0 mm - - -
1788120719 9.44° C 83% 1027.6 hPa 0 mm - - -
1788120415 9.44° C 83% 1027.5 hPa 0 mm - - -
1788120112 8.89° C 82% 1027.4 hPa 0 mm - - -
1788119509 8.89° C 78% 1027 hPa 0 mm - - -
1788119206 9.44° C 78% 1027 hPa 0 mm - - -
1788118902 9.44° C 78% 1026.8 hPa 0 mm - - -

* Rain since midnight (hover to see other rain measurements)
** Current wind speed in m/s (hover to see current wind gust speed)